Time;durP1;ratioP1;P1;durP2;ratioP2;P2;SDS_P1;SDS_P2;PMS_P1;PMS_P2;Temp;Humidity;BMP_temperature;BMP_pressure;BME280_temperature;BME280_humidity;BME280_pressure;Samples;Min_cycle;Max_cycle;Signal;HPM_P1;HPM_P2
2021/07/24 00:00:16;;;;;;;8.03;4.90;;;;;;;14.86;83.26;100918.56;5074640;28;20175;-68
2021/07/24 00:02:41;;;;;;;7.73;4.90;;;;;;;14.86;83.68;100916.72;5072968;28;20191;-68
2021/07/24 00:05:07;;;;;;;9.47;5.10;;;;;;;14.88;83.41;100911.28;5074112;28;20630;-68
2021/07/24 00:07:32;;;;;;;6.83;4.73;;;;;;;14.94;83.01;100913.53;5073990;28;20210;-68
2021/07/24 00:09:57;;;;;;;7.60;4.83;;;;;;;14.95;83.30;100913.44;5074481;28;20167;-68
2021/07/24 00:12:22;;;;;;;8.60;5.63;;;;;;;14.95;83.39;100905.38;5074028;28;20589;-68
2021/07/24 00:14:48;;;;;;;9.03;4.83;;;;;;;15.02;83.81;100905.78;5074282;28;20272;-68
2021/07/24 00:17:13;;;;;;;9.50;4.53;;;;;;;14.97;83.95;100902.56;5073761;28;20179;-68
2021/07/24 00:19:38;;;;;;;7.00;4.73;;;;;;;14.95;84.25;100902.69;5074239;28;20171;-68
2021/07/24 00:22:04;;;;;;;7.37;4.90;;;;;;;14.95;84.11;100897.31;5072656;28;20185;-68
2021/07/24 00:24:29;;;;;;;11.60;5.00;;;;;;;14.95;84.61;100894.63;5072403;28;20635;-68
2021/07/24 00:26:54;;;;;;;11.73;5.20;;;;;;;15.06;85.14;100895.69;5072536;28;20228;-68
2021/07/24 00:29:20;;;;;;;8.00;4.90;;;;;;;15.31;84.89;100888.47;5073541;28;20199;-68
2021/07/24 00:31:45;;;;;;;7.70;5.10;;;;;;;15.47;84.06;100890.88;5072277;28;20529;-67
2021/07/24 00:34:10;;;;;;;6.83;4.83;;;;;;;15.22;83.15;100889.09;5073557;28;20241;-68
2021/07/24 00:36:35;;;;;;;7.37;4.97;;;;;;;15.23;83.93;100889.94;5055878;28;20179;-68
2021/07/24 00:39:01;;;;;;;7.90;4.97;;;;;;;15.15;84.54;100893.19;5073897;28;20199;-69
2021/07/24 00:41:30;;;;;;;4.97;4.30;;;;;;;15.08;84.49;100893.75;5072295;28;20512;-69
2021/07/24 00:43:56;;;;;;;8.83;4.97;;;;;;;15.14;84.60;100887.94;5072178;28;20222;-68
2021/07/24 00:46:23;;;;;;;12.30;5.83;;;;;;;15.19;85.16;100883.94;5071597;28;20187;-68
2021/07/24 00:48:48;;;;;;;11.70;5.10;;;;;;;14.92;83.26;100893.97;5072028;28;20199;-68
2021/07/24 00:51:23;;;;;;;6.77;4.90;;;;;;;14.67;84.36;100889.44;5072364;28;20179;-70
2021/07/24 00:53:49;;;;;;;6.27;4.83;;;;;;;14.66;84.40;100893.94;5073112;28;20638;-70
2021/07/24 00:56:16;;;;;;;7.13;4.83;;;;;;;14.68;84.64;100889.31;5073378;28;20171;-68
2021/07/24 00:58:42;;;;;;;9.73;4.90;;;;;;;14.67;84.17;100889.44;5073022;28;20734;-69
2021/07/24 01:01:07;;;;;;;7.60;4.67;;;;;;;14.69;84.18;100884.81;5072142;28;20261;-68
2021/07/24 01:03:33;;;;;;;8.07;5.47;;;;;;;14.57;84.98;100889.22;5073212;28;20203;-69
2021/07/24 01:05:59;;;;;;;8.73;5.57;;;;;;;14.42;86.06;100895.56;5071874;28;20171;-68
2021/07/24 01:08:24;;;;;;;7.67;4.87;;;;;;;14.45;86.53;100895.41;5072960;28;20214;-68
2021/07/24 01:10:50;;;;;;;10.90;4.67;;;;;;;14.45;86.65;100894.53;5072999;28;20178;-68
2021/07/24 01:13:17;;;;;;;7.20;5.50;;;;;;;14.58;87.68;100890.06;5073179;28;20179;-68
2021/07/24 01:15:47;;;;;;;8.27;5.33;;;;;;;14.56;86.43;100892.00;5071677;28;20199;-67
2021/07/24 01:18:13;;;;;;;7.13;4.37;;;;;;;14.56;85.34;100884.81;5071793;28;20211;-68
2021/07/24 01:20:40;;;;;;;8.03;5.27;;;;;;;14.52;85.38;100883.31;5072058;28;20183;-68
2021/07/24 01:23:05;;;;;;;6.60;4.47;;;;;;;14.48;85.59;100897.00;5054985;28;20193;-68
2021/07/24 01:25:30;;;;;;;6.40;5.00;;;;;;;14.44;86.01;100893.69;5073180;28;20190;-69
2021/07/24 01:27:56;;;;;;;10.37;5.63;;;;;;;14.48;86.16;100886.28;5071522;28;20195;-69
2021/07/24 01:30:21;;;;;;;9.37;5.37;;;;;;;14.49;86.10;100879.94;5073659;28;20210;-69
2021/07/24 01:32:46;;;;;;;7.47;5.50;;;;;;;14.52;85.98;100883.31;5072785;28;20215;-69
2021/07/24 01:35:12;;;;;;;6.90;5.50;;;;;;;14.53;86.13;100879.66;5073349;28;20206;-69
2021/07/24 01:37:37;;;;;;;11.53;5.60;;;;;;;14.54;86.50;100872.44;5072803;28;20277;-69
2021/07/24 01:40:04;;;;;;;7.77;6.00;;;;;;;14.55;86.28;100877.72;5073081;28;20183;-69
2021/07/24 01:42:29;;;;;;;8.23;5.60;;;;;;;14.55;86.46;100863.44;5071460;28;20186;-69
2021/07/24 01:44:55;;;;;;;6.67;5.40;;;;;;;14.56;86.83;100875.88;5071514;28;20171;-69
2021/07/24 01:47:20;;;;;;;10.53;6.27;;;;;;;14.58;87.41;100868.59;5071428;28;20221;-68
2021/07/24 01:52:47;;;;;;;10.83;5.73;;;;;;;14.70;86.98;100873.97;5072856;28;20193;-68
2021/07/24 01:55:13;;;;;;;10.70;6.00;;;;;;;14.69;86.59;100877.63;5071630;28;20194;-68
2021/07/24 01:57:42;;;;;;;7.13;5.47;;;;;;;14.82;85.12;100876.75;5071600;28;20186;-68
2021/07/24 02:00:09;;;;;;;8.43;5.40;;;;;;;14.63;85.75;100867.28;5058727;28;20186;-67
2021/07/24 02:02:35;;;;;;;10.33;5.47;;;;;;;14.66;85.01;100872.47;5075984;28;20186;-68
2021/07/24 02:05:02;;;;;;;9.33;5.13;;;;;;;14.42;86.37;100863.34;5075615;28;20222;-68
2021/07/24 02:07:29;;;;;;;10.20;5.27;;;;;;;14.54;86.82;100867.09;5075170;28;20210;-68
2021/07/24 02:09:54;;;;;;;10.47;5.20;;;;;;;14.89;87.95;100865.50;5075264;28;20159;-68
2021/07/24 02:12:19;;;;;;;10.20;5.07;;;;;;;15.03;86.55;100867.19;5076620;28;20301;-68
2021/07/24 02:14:45;;;;;;;7.40;5.13;;;;;;;15.05;85.53;100865.25;5076283;28;20563;-68
2021/07/24 02:17:10;;;;;;;10.73;5.20;;;;;;;15.05;86.02;100851.81;5075624;28;20183;-68
2021/07/24 02:19:36;;;;;;;10.57;5.03;;;;;;;15.23;86.11;100850.47;5077049;28;20175;-68
2021/07/24 02:22:01;;;;;;;10.93;5.27;;;;;;;15.45;85.44;100859.69;5074941;28;20186;-68
2021/07/24 02:24:26;;;;;;;8.67;5.27;;;;;;;15.41;84.57;100859.06;5074793;28;20177;-68
2021/07/24 02:26:53;;;;;;;8.83;5.53;;;;;;;15.27;84.19;100851.16;5076186;28;20186;-68
2021/07/24 02:29:18;;;;;;;7.53;5.23;;;;;;;15.12;84.12;100847.72;5075987;28;20191;-68
2021/07/24 02:31:44;;;;;;;9.27;5.40;;;;;;;14.88;85.36;100861.09;5076616;28;20280;-69
2021/07/24 02:34:09;;;;;;;7.33;5.33;;;;;;;14.72;86.58;100865.78;5076242;28;20221;-68
2021/07/24 02:36:35;;;;;;;7.93;5.30;;;;;;;14.66;86.20;100853.66;5074705;28;20179;-68
2021/07/24 02:39:00;;;;;;;6.83;4.90;;;;;;;14.69;85.49;100855.25;5075786;28;20189;-68
2021/07/24 02:41:25;;;;;;;8.43;5.07;;;;;;;14.72;85.10;100852.34;5075840;28;20183;-68
2021/07/24 02:43:50;;;;;;;10.30;5.40;;;;;;;14.87;86.21;100845.94;5076018;28;20261;-68
2021/07/24 02:46:19;;;;;;;9.23;5.80;;;;;;;15.02;88.10;100838.59;5074890;28;20175;-68
2021/07/24 02:48:47;;;;;;;10.40;5.30;;;;;;;15.01;85.39;100839.56;5074452;28;20190;-68
2021/07/24 02:51:13;;;;;;;6.50;4.87;;;;;;;15.01;86.45;100842.25;5074754;28;20238;-69
2021/07/24 02:53:39;;;;;;;9.33;4.97;;;;;;;15.07;87.14;100840.94;5074604;28;20250;-68
2021/07/24 02:56:04;;;;;;;10.13;5.70;;;;;;;15.15;87.21;100841.25;5078245;28;20210;-69
2021/07/24 02:58:29;;;;;;;7.60;5.27;;;;;;;15.09;87.26;100844.38;5089585;28;20198;-69
2021/07/24 03:00:55;;;;;;;7.73;5.23;;;;;;;15.04;87.16;100839.34;5088245;28;20171;-69
2021/07/24 03:03:20;;;;;;;10.10;6.00;;;;;;;15.17;88.10;100840.16;5077301;28;20521;-69
2021/07/24 03:05:45;;;;;;;9.07;5.43;;;;;;;14.61;87.52;100837.00;5075859;28;20238;-68
2021/07/24 03:08:10;;;;;;;9.90;5.47;;;;;;;14.66;87.01;100845.59;5075545;28;20209;-69
2021/07/24 03:10:36;;;;;;;7.40;5.37;;;;;;;14.41;86.74;100848.22;5075083;28;20182;-68
2021/07/24 03:13:01;;;;;;;11.37;5.90;;;;;;;14.41;87.21;100845.53;5074177;28;20641;-68
2021/07/24 03:15:26;;;;;;;7.23;5.47;;;;;;;14.38;86.86;100840.38;5074318;28;20183;-68
2021/07/24 03:17:52;;;;;;;7.40;5.00;;;;;;;14.25;87.77;100844.88;5074159;28;20187;-68
2021/07/24 03:20:17;;;;;;;8.83;5.00;;;;;;;14.31;87.83;100841.75;5075786;28;20175;-68
2021/07/24 03:22:42;;;;;;;6.93;5.40;;;;;;;14.30;87.83;100837.34;5074162;28;20711;-68
2021/07/24 03:25:08;;;;;;;9.43;6.30;;;;;;;14.37;88.05;100844.03;5074118;28;20171;-68
2021/07/24 03:27:33;;;;;;;7.17;4.90;;;;;;;14.46;87.11;100834.50;5076761;28;20223;-68
2021/07/24 03:29:58;;;;;;;7.53;5.40;;;;;;;14.50;86.99;100833.34;5074143;28;20178;-68
2021/07/24 03:32:24;;;;;;;6.67;5.37;;;;;;;14.49;86.76;100832.47;5075626;28;20179;-68
2021/07/24 03:34:49;;;;;;;6.73;5.23;;;;;;;14.62;87.36;100837.84;5073975;28;20248;-69
2021/07/24 03:37:14;;;;;;;8.53;5.27;;;;;;;14.59;86.81;100827.34;5074194;28;20535;-68
2021/07/24 03:39:40;;;;;;;8.53;5.73;;;;;;;14.64;86.98;100820.66;5075205;28;20171;-68
2021/07/24 03:42:05;;;;;;;8.67;6.50;;;;;;;14.82;88.58;100815.81;5074996;28;20167;-68
2021/07/24 03:44:30;;;;;;;15.33;7.30;;;;;;;15.09;89.00;100820.19;5074473;28;20170;-70
2021/07/24 03:46:55;;;;;;;13.60;7.17;;;;;;;15.20;87.70;100820.28;5075349;28;20201;-68
2021/07/24 03:49:21;;;;;;;17.20;7.70;;;;;;;15.33;87.31;100821.97;5075188;28;20540;-69
2021/07/24 03:51:46;;;;;;;11.63;7.00;;;;;;;15.35;86.75;100819.19;5075426;28;20237;-69
2021/07/24 03:54:11;;;;;;;8.60;5.63;;;;;;;15.23;85.31;100814.66;5073818;28;20194;-68
2021/07/24 03:56:37;;;;;;;8.93;5.50;;;;;;;15.01;85.42;100812.69;5074496;28;20178;-68
2021/07/24 03:59:02;;;;;;;8.50;5.70;;;;;;;14.92;86.52;100814.22;5076711;28;20189;-68
2021/07/24 04:01:29;;;;;;;9.60;5.43;;;;;;;14.88;86.58;100809.16;5074596;28;20174;-69
2021/07/24 04:03:54;;;;;;;8.17;6.07;;;;;;;14.99;85.98;100806.56;5072948;28;20167;-69
2021/07/24 04:06:21;;;;;;;8.43;5.80;;;;;;;14.94;85.99;100806.03;5074485;28;20654;-69
2021/07/24 04:08:48;;;;;;;11.33;5.60;;;;;;;14.99;86.42;100798.50;5110793;22;20229;-71
2021/07/24 04:11:13;;;;;;;6.87;5.53;;;;;;;14.99;86.03;100793.13;5089223;28;20203;-71
2021/07/24 04:13:38;;;;;;;8.97;5.60;;;;;;;15.01;86.56;100801.94;5100760;28;20174;-71
2021/07/24 04:16:04;;;;;;;10.60;5.50;;;;;;;15.07;86.20;100809.56;5093031;28;20239;-71
2021/07/24 04:18:32;;;;;;;8.87;6.17;;;;;;;15.08;86.44;100805.91;5076282;28;20251;-71
2021/07/24 04:20:58;;;;;;;8.20;5.97;;;;;;;15.15;86.40;100803.63;5092318;28;20178;-71
2021/07/24 04:23:24;;;;;;;8.83;5.97;;;;;;;15.23;85.88;100807.47;5093406;28;20257;-71
2021/07/24 04:25:49;;;;;;;7.27;5.47;;;;;;;15.33;85.70;100810.38;5093010;28;20209;-71
2021/07/24 04:28:14;;;;;;;9.37;5.50;;;;;;;15.46;84.85;100813.00;5094306;28;20202;-69
2021/07/24 04:30:40;;;;;;;8.43;5.27;;;;;;;15.58;84.09;100814.81;5093145;28;20627;-69
2021/07/24 04:33:05;;;;;;;10.70;5.53;;;;;;;15.84;83.33;100812.88;5092853;28;20182;-70
2021/07/24 04:35:30;;;;;;;7.20;5.53;;;;;;;15.94;82.69;100814.75;5092781;28;20194;-69
2021/07/24 04:37:56;;;;;;;10.53;5.73;;;;;;;16.04;82.10;100812.25;5092897;28;20204;-69
2021/07/24 04:40:21;;;;;;;9.23;6.37;;;;;;;15.92;83.02;100816.69;5092972;28;20182;-70
2021/07/24 04:42:46;;;;;;;6.50;5.00;;;;;;;16.07;82.58;100816.53;5093048;28;20604;-70
2021/07/24 04:45:12;;;;;;;6.83;5.60;;;;;;;16.03;83.14;100817.75;5092915;28;20192;-70
2021/07/24 04:47:37;;;;;;;5.37;4.43;;;;;;;16.13;81.84;100810.69;5094179;28;20182;-70
2021/07/24 04:50:03;;;;;;;9.50;5.60;;;;;;;16.22;81.53;100807.28;5094016;28;20174;-70
2021/07/24 04:52:28;;;;;;;7.40;4.93;;;;;;;16.35;81.12;100807.19;5092819;28;20313;-69
2021/07/24 04:54:54;;;;;;;9.03;6.17;;;;;;;16.26;81.68;100804.22;5092494;28;20190;-70
2021/07/24 04:57:19;;;;;;;12.43;6.40;;;;;;;16.19;82.42;100811.06;5092674;28;20170;-70
2021/07/24 04:59:48;;;;;;;10.93;6.07;;;;;;;16.20;83.19;100814.63;5093963;28;20281;-70
2021/07/24 05:02:18;;;;;;;9.87;6.13;;;;;;;16.25;83.41;100815.97;5092519;28;20558;-70
2021/07/24 05:04:44;;;;;;;8.07;6.10;;;;;;;16.36;82.57;100809.78;5076388;28;20155;-69
2021/07/24 05:07:17;;;;;;;9.07;6.40;;;;;;;16.42;83.08;100809.31;5092562;28;20565;-69
2021/07/24 05:09:42;;;;;;;12.27;6.23;;;;;;;16.53;82.09;100812.00;5092380;28;20217;-70
2021/07/24 05:12:08;;;;;;;8.90;5.37;;;;;;;16.58;81.14;100809.81;5092407;28;20170;-70
2021/07/24 05:14:34;;;;;;;11.67;5.40;;;;;;;16.61;81.69;100824.03;5092369;28;20194;-69
2021/07/24 05:17:13;;;;;;;7.57;5.60;;;;;;;16.53;81.74;100824.63;5075653;28;20638;-69
2021/07/24 05:19:40;;;;;;;9.90;6.10;;;;;;;16.41;83.39;100825.59;5092101;28;20205;-70
2021/07/24 05:22:06;;;;;;;7.07;5.60;;;;;;;16.47;82.37;100834.03;5092287;28;20245;-69
2021/07/24 05:24:35;;;;;;;7.07;5.47;;;;;;;16.45;82.74;100830.63;5092417;28;20265;-69
2021/07/24 05:27:01;;;;;;;9.17;6.43;;;;;;;16.52;82.45;100831.00;5092308;28;20171;-69
2021/07/24 05:29:26;;;;;;;6.80;5.00;;;;;;;16.64;81.88;100835.41;5092080;28;20190;-69
2021/07/24 05:31:52;;;;;;;10.73;6.53;;;;;;;16.73;81.62;100833.91;5093222;28;20177;-69
2021/07/24 05:34:17;;;;;;;6.90;5.20;;;;;;;16.81;80.94;100821.53;5075164;28;20198;-69
2021/07/24 05:36:42;;;;;;;13.80;5.37;;;;;;;16.89;81.35;100826.31;5093469;28;20186;-69
2021/07/24 05:39:08;;;;;;;7.33;5.50;;;;;;;16.95;80.54;100822.25;5092384;28;20670;-69
2021/07/24 05:41:33;;;;;;;12.10;6.77;;;;;;;17.01;81.44;100829.84;5092109;28;20227;-70
2021/07/24 05:43:58;;;;;;;12.43;7.23;;;;;;;17.24;80.13;100823.47;5093566;28;20182;-70
2021/07/24 05:46:23;;;;;;;13.47;7.17;;;;;;;17.26;79.12;100826.06;5092314;28;20537;-70
2021/07/24 05:48:49;;;;;;;9.83;6.60;;;;;;;17.49;78.39;100822.34;5091848;28;20198;-70
2021/07/24 05:51:14;;;;;;;13.30;7.10;;;;;;;17.52;78.22;100823.94;5092023;28;20178;-70
2021/07/24 05:53:39;;;;;;;10.53;6.43;;;;;;;17.65;77.61;100821.94;5092100;28;20238;-70
2021/07/24 05:56:05;;;;;;;12.43;7.07;;;;;;;17.65;78.25;100822.78;5093046;28;20190;-70
2021/07/24 05:58:30;;;;;;;10.83;6.30;;;;;;;17.68;78.23;100822.56;5093324;28;20205;-69
2021/07/24 06:00:56;;;;;;;11.17;6.33;;;;;;;18.00;76.49;100821.72;5092307;28;20263;-70
2021/07/24 06:03:21;;;;;;;13.90;6.47;;;;;;;18.03;76.93;100830.44;5093891;28;20198;-69
2021/07/24 06:05:46;;;;;;;10.00;6.40;;;;;;;18.29;75.53;100825.53;5093125;28;20171;-70
2021/07/24 06:08:12;;;;;;;10.27;6.27;;;;;;;18.53;74.29;100832.50;5092637;28;20217;-71
2021/07/24 06:10:37;;;;;;;13.23;6.73;;;;;;;18.59;73.96;100826.59;5093474;28;20159;-71
2021/07/24 06:13:02;;;;;;;9.47;6.83;;;;;;;18.58;73.48;100833.81;5093869;28;20263;-71
2021/07/24 06:15:30;;;;;;;11.80;6.80;;;;;;;18.71;73.80;100825.56;5114376;28;20232;-71
2021/07/24 06:17:55;;;;;;;13.57;6.90;;;;;;;18.85;73.43;100822.50;5113754;28;20197;-70
2021/07/24 06:20:20;;;;;;;10.57;6.50;;;;;;;19.17;72.42;100829.63;5115686;28;20174;-70
2021/07/24 06:22:45;;;;;;;10.60;6.20;;;;;;;19.35;71.68;100833.41;5106397;28;20508;-70
2021/07/24 06:25:12;;;;;;;10.17;6.63;;;;;;;19.35;72.00;100833.41;5092951;28;20171;-71
2021/07/24 06:27:37;;;;;;;10.90;6.80;;;;;;;19.23;72.68;100829.06;5092467;28;20216;-70
2021/07/24 06:30:03;;;;;;;10.53;6.50;;;;;;;19.41;71.28;100826.56;5091911;28;20175;-70
2021/07/24 06:32:28;;;;;;;10.97;6.30;;;;;;;19.70;71.18;100837.47;5091806;28;20177;-70
2021/07/24 06:34:53;;;;;;;6.60;5.50;;;;;;;19.90;70.41;100841.94;5094433;28;20190;-70
2021/07/24 06:37:19;;;;;;;8.43;5.90;;;;;;;20.16;69.57;100837.69;5109814;28;20178;-70
2021/07/24 06:39:44;;;;;;;13.00;6.40;;;;;;;20.24;68.81;100840.53;5102014;28;20205;-70
2021/07/24 06:42:09;;;;;;;8.83;6.27;;;;;;;20.48;67.90;100850.13;5092099;28;20181;-70
2021/07/24 06:44:35;;;;;;;8.87;6.53;;;;;;;20.64;67.57;100839.53;5094313;28;20230;-69
2021/07/24 06:47:00;;;;;;;9.87;5.73;;;;;;;20.68;67.84;100831.94;5095405;28;20174;-70
2021/07/24 06:49:25;;;;;;;9.97;6.77;;;;;;;20.34;68.30;100836.97;5095112;28;20198;-69
2021/07/24 06:51:50;;;;;;;8.50;5.97;;;;;;;20.90;67.78;100829.75;5095126;28;20174;-71
2021/07/24 06:54:16;;;;;;;13.57;6.60;;;;;;;21.03;66.46;100834.00;5094874;28;20198;-70
2021/07/24 06:56:41;;;;;;;9.23;6.03;;;;;;;21.20;65.71;100827.81;5095086;28;20174;-71
2021/07/24 06:59:06;;;;;;;8.27;5.90;;;;;;;21.18;66.67;100829.78;5096194;28;20192;-70
2021/07/24 07:01:32;;;;;;;11.50;7.13;;;;;;;21.00;67.78;100828.88;5096320;28;20181;-70
2021/07/24 07:03:57;;;;;;;9.70;6.23;;;;;;;21.06;66.57;100820.97;5094683;28;20257;-70
2021/07/24 07:06:22;;;;;;;12.67;7.73;;;;;;;20.72;67.23;100828.78;5095311;28;20260;-70
2021/07/24 07:08:47;;;;;;;9.77;6.83;;;;;;;21.05;66.83;100826.56;5094693;28;20241;-70
2021/07/24 07:11:13;;;;;;;15.67;6.80;;;;;;;21.09;67.29;100826.09;5094867;28;20178;-69
2021/07/24 07:13:38;;;;;;;11.13;6.87;;;;;;;20.87;67.32;100823.78;5095287;28;20285;-70
2021/07/24 07:16:05;;;;;;;9.63;7.20;;;;;;;21.19;66.09;100826.09;5094770;28;20678;-70
2021/07/24 07:18:30;;;;;;;13.03;6.93;;;;;;;21.32;65.40;100810.34;5077669;28;20281;-70
2021/07/24 07:20:55;;;;;;;11.87;7.47;;;;;;;21.32;64.80;100807.63;5095816;28;20664;-70
2021/07/24 07:23:21;;;;;;;13.20;7.70;;;;;;;21.32;64.37;100809.47;5096773;28;20171;-71
2021/07/24 07:25:46;;;;;;;10.17;7.57;;;;;;;21.57;64.00;100816.06;5099044;28;20167;-71
2021/07/24 07:28:12;;;;;;;12.20;7.93;;;;;;;21.49;63.11;100808.66;5097410;28;20194;-71
2021/07/24 07:30:37;;;;;;;11.10;8.27;;;;;;;21.74;62.77;100804.34;5095025;28;20166;-71
2021/07/24 07:33:02;;;;;;;19.30;8.33;;;;;;;21.67;61.14;100804.13;5094332;28;20254;-70
2021/07/24 07:35:28;;;;;;;14.73;7.53;;;;;;;21.94;61.69;100800.50;5095987;28;20543;-69
2021/07/24 07:37:54;;;;;;;11.80;8.30;;;;;;;22.01;61.31;100801.59;5095385;28;20205;-71
2021/07/24 07:40:21;;;;;;;17.13;8.47;;;;;;;22.09;61.38;100798.13;5094808;28;20198;-70
2021/07/24 07:42:47;;;;;;;10.30;7.90;;;;;;;22.31;60.37;100802.22;5094195;28;20231;-71
2021/07/24 07:45:12;;;;;;;11.13;7.80;;;;;;;22.37;61.11;100797.00;5095351;28;20642;-70
2021/07/24 07:47:37;;;;;;;10.43;8.27;;;;;;;22.51;59.31;100795.56;5093951;28;20178;-71
2021/07/24 07:50:06;;;;;;;12.87;8.83;;;;;;;22.46;56.18;100787.03;5093887;28;20634;-70
2021/07/24 07:52:32;;;;;;;10.47;7.63;;;;;;;22.76;55.64;100785.69;5093985;28;20178;-70
2021/07/24 07:54:58;;;;;;;10.07;8.60;;;;;;;22.95;55.53;100788.22;5094123;28;20689;-71
2021/07/24 07:57:25;;;;;;;12.30;7.83;;;;;;;23.05;55.62;100788.09;5094045;28;20170;-71
2021/07/24 07:59:50;;;;;;;11.53;8.47;;;;;;;23.00;54.96;100787.72;5093849;28;20560;-70
2021/07/24 08:02:16;;;;;;;10.47;7.37;;;;;;;23.15;54.92;100782.53;5094072;28;20257;-70
2021/07/24 08:04:41;;;;;;;10.37;8.03;;;;;;;23.28;55.45;100780.19;5093873;28;20181;-70
2021/07/24 08:07:06;;;;;;;11.47;8.63;;;;;;;23.01;56.48;100773.94;5093831;28;20662;-69
2021/07/24 08:09:31;;;;;;;13.83;8.47;;;;;;;23.30;55.52;100770.84;5093712;28;20206;-70
2021/07/24 08:11:57;;;;;;;11.63;7.77;;;;;;;23.38;54.57;100773.59;5094267;28;20184;-69
2021/07/24 08:14:22;;;;;;;13.83;8.97;;;;;;;23.47;54.48;100768.19;5095380;28;20547;-69
2021/07/24 08:16:47;;;;;;;12.13;8.70;;;;;;;23.66;53.82;100767.91;5094619;28;20223;-72
2021/07/24 08:19:13;;;;;;;11.07;8.37;;;;;;;23.65;54.56;100758.03;5097237;28;20226;-71
2021/07/24 08:21:38;;;;;;;11.67;8.33;;;;;;;23.62;53.72;100750.19;5093976;28;20216;-72
2021/07/24 08:24:03;;;;;;;11.43;8.83;;;;;;;23.75;53.25;100756.00;5094182;28;20656;-73
2021/07/24 08:26:29;;;;;;;12.47;8.90;;;;;;;23.84;52.67;100755.00;5094088;28;20188;-71
2021/07/24 08:28:54;;;;;;;10.73;9.13;;;;;;;23.68;52.10;100757.69;5099395;28;20194;-71
2021/07/24 08:31:19;;;;;;;13.57;8.87;;;;;;;23.86;51.00;100757.56;5095309;28;20610;-69
2021/07/24 08:33:45;;;;;;;11.13;9.17;;;;;;;23.93;50.18;100745.81;5093640;28;20174;-71
2021/07/24 08:36:10;;;;;;;12.67;8.67;;;;;;;24.18;49.52;100743.94;5093797;28;20194;-71
2021/07/24 08:38:35;;;;;;;10.17;8.13;;;;;;;24.38;49.07;100747.19;5095612;28;20217;-70
2021/07/24 08:41:02;;;;;;;16.37;9.57;;;;;;;24.14;49.28;100738.97;5094619;28;20173;-72
2021/07/24 08:43:27;;;;;;;11.37;8.53;;;;;;;24.06;49.85;100730.81;5093299;28;20200;-71
2021/07/24 08:45:55;;;;;;;12.40;9.10;;;;;;;24.14;49.72;100730.78;5094194;28;20167;-70
2021/07/24 08:48:21;;;;;;;10.13;8.40;;;;;;;24.48;48.97;100731.47;5093302;28;20210;-70
2021/07/24 08:50:48;;;;;;;14.20;8.77;;;;;;;24.51;48.93;100724.81;5093632;28;20565;-70
2021/07/24 08:53:16;;;;;;;10.60;8.50;;;;;;;24.59;48.52;100728.41;5093098;28;20204;-70
2021/07/24 08:55:42;;;;;;;11.97;9.30;;;;;;;24.73;47.82;100728.69;5093964;28;20211;-71
2021/07/24 08:58:12;;;;;;;10.97;9.20;;;;;;;24.42;48.12;100721.25;5096077;28;20190;-71
2021/07/24 09:00:37;;;;;;;23.43;9.50;;;;;;;24.70;47.01;100720.84;5083846;28;20223;-71
2021/07/24 09:03:03;;;;;;;12.27;9.53;;;;;;;24.63;46.40;100710.66;5095420;28;20661;-70
2021/07/24 09:05:30;;;;;;;11.63;9.60;;;;;;;24.61;46.93;100709.97;5093037;28;20257;-70
2021/07/24 09:07:57;;;;;;;12.67;9.03;;;;;;;24.65;46.12;100712.34;5075513;28;20194;-70
2021/07/24 09:10:22;;;;;;;12.53;9.83;;;;;;;24.93;47.24;100710.88;5092839;28;20163;-70
2021/07/24 09:12:49;;;;;;;14.17;9.70;;;;;;;24.98;45.70;100707.63;5094128;28;20175;-70
2021/07/24 09:15:16;;;;;;;12.70;8.27;;;;;;;24.99;45.62;100709.34;5092964;28;20727;-71
2021/07/24 09:17:41;;;;;;;9.33;7.97;;;;;;;25.42;45.15;100710.66;5094016;28;20197;-71
2021/07/24 09:20:08;;;;;;;11.40;9.27;;;;;;;25.54;44.57;100709.19;5092780;28;20166;-71
2021/07/24 09:22:35;;;;;;;11.43;8.27;;;;;;;25.56;42.97;100710.72;5093687;28;20655;-72
2021/07/24 09:25:19;;;;;;;12.07;9.00;;;;;;;25.69;42.88;100710.16;5094527;28;20245;-71
2021/07/24 09:27:52;;;;;;;10.57;8.80;;;;;;;25.81;41.45;100699.66;5077353;28;20169;-70
2021/07/24 09:30:23;;;;;;;12.20;8.50;;;;;;;26.28;40.91;100718.53;5093572;28;20227;-70
2021/07/24 09:33:05;;;;;;;11.73;8.50;;;;;;;26.37;42.04;100714.69;5093936;28;20193;-72
2021/07/24 09:35:40;;;;;;;12.40;8.53;;;;;;;26.28;42.62;100710.31;5093516;28;20193;-70
2021/07/24 09:38:13;;;;;;;13.47;9.00;;;;;;;26.81;40.47;100713.06;5092711;28;20268;-70
2021/07/24 09:40:40;;;;;;;12.27;8.30;;;;;;;26.66;40.55;100711.16;5093380;28;20165;-72
2021/07/24 09:43:27;;;;;;;10.20;8.63;;;;;;;26.65;40.29;100709.44;5093413;28;20591;-70
2021/07/24 09:46:12;;;;;;;10.27;7.50;;;;;;;26.75;39.48;100715.47;5093337;28;20687;-71
2021/07/24 09:48:38;;;;;;;9.53;7.60;;;;;;;26.70;38.07;100715.19;5095124;28;20283;-71
2021/07/24 09:51:04;;;;;;;10.30;7.87;;;;;;;26.75;38.83;100706.41;5076467;28;20175;-72
2021/07/24 09:53:40;;;;;;;10.73;8.03;;;;;;;27.01;37.84;100715.03;5095398;28;20170;-71
2021/07/24 09:56:06;;;;;;;12.10;7.70;;;;;;;26.51;39.08;100707.56;5076590;28;20231;-72
2021/07/24 09:58:32;;;;;;;11.50;8.00;;;;;;;26.53;38.80;100701.91;5092111;28;20197;-71
2021/07/24 10:01:06;;;;;;;10.23;8.17;;;;;;;26.20;40.41;100699.47;5092565;28;20191;-71
2021/07/24 10:03:34;;;;;;;8.43;7.03;;;;;;;26.44;40.10;100692.94;5092712;28;20171;-72
2021/07/24 10:06:01;;;;;;;12.33;7.77;;;;;;;26.83;39.05;100694.53;5095891;28;20178;-70
2021/07/24 10:08:29;;;;;;;10.83;7.90;;;;;;;26.52;40.21;100690.09;5094240;28;20202;-72
2021/07/24 10:10:54;;;;;;;15.97;7.43;;;;;;;26.38;40.10;100685.47;5091939;28;20216;-71
2021/07/24 10:13:20;;;;;;;10.60;7.93;;;;;;;26.23;37.95;100670.88;5093548;28;20178;-72
2021/07/24 10:15:45;;;;;;;9.67;7.83;;;;;;;26.64;38.41;100683.13;5091715;28;20198;-72
2021/07/24 10:18:12;;;;;;;10.20;7.77;;;;;;;26.86;38.28;100684.06;5091868;28;20201;-72
2021/07/24 10:20:40;;;;;;;12.00;7.40;;;;;;;27.21;38.21;100687.06;5082473;28;20174;-73
2021/07/24 10:23:06;;;;;;;8.80;7.67;;;;;;;26.89;37.77;100689.16;5109065;28;20630;-72
2021/07/24 10:25:48;;;;;;;10.23;7.60;;;;;;;26.76;37.92;100691.69;5107173;28;20311;-72
2021/07/24 10:28:19;;;;;;;8.17;6.57;;;;;;;27.29;37.10;100686.94;5080861;28;20753;-74
2021/07/24 10:30:45;;;;;;;7.53;6.80;;;;;;;27.38;37.24;100683.03;5097296;28;20165;-73
2021/07/24 10:33:11;;;;;;;9.50;8.03;;;;;;;27.35;35.99;100673.31;5081563;28;20178;-74
2021/07/24 10:35:41;;;;;;;8.57;7.17;;;;;;;27.31;35.58;100676.63;5081035;28;20729;-74
2021/07/24 10:38:30;;;;;;;8.47;7.13;;;;;;;26.80;36.69;100679.34;5098636;28;20201;-72
2021/07/24 10:41:21;;;;;;;11.13;6.57;;;;;;;27.14;37.66;100686.13;5096294;28;20193;-74
2021/07/24 10:44:03;;;;;;;10.67;7.03;;;;;;;27.73;35.61;100677.72;5098831;28;20238;-74
2021/07/24 10:46:41;;;;;;;8.07;6.97;;;;;;;27.43;36.18;100675.06;5080333;28;20158;-73
2021/07/24 10:49:07;;;;;;;10.03;7.10;;;;;;;27.20;34.96;100679.88;5097536;28;20201;-72
2021/07/24 10:52:17;;;;;;;10.07;7.57;;;;;;;26.77;37.31;100674.25;5079893;28;20182;-73
2021/07/24 10:54:51;;;;;;;10.27;7.03;;;;;;;27.02;36.56;100672.91;5096070;28;20562;-72
2021/07/24 10:57:45;;;;;;;10.87;7.13;;;;;;;27.94;34.56;100670.34;5096690;28;20228;-72
2021/07/24 11:00:31;;;;;;;9.70;7.00;;;;;;;28.23;35.72;100676.66;5097817;28;20174;-72
2021/07/24 11:02:56;;;;;;;11.50;6.83;;;;;;;28.24;35.64;100678.38;5081031;28;20557;-72
2021/07/24 11:05:28;;;;;;;13.23;6.67;;;;;;;28.71;34.85;100674.91;5098933;28;20256;-72
2021/07/24 11:07:57;;;;;;;9.87;6.93;;;;;;;28.44;33.87;100676.63;5100215;28;20216;-74
2021/07/24 11:10:24;;;;;;;10.70;6.80;;;;;;;30.16;31.72;100685.50;5106662;28;20170;-72
2021/07/24 11:12:50;;;;;;;15.38;6.60;;;;;;;31.21;29.36;100683.56;5118403;28;20170;-72
2021/07/24 11:15:47;;;;;;;10.10;6.75;;;;;;;29.33;32.33;100690.41;5100148;28;20634;-74
2021/07/24 11:18:20;;;;;;;9.48;6.57;;;;;;;30.39;30.65;100690.53;5107651;28;20214;-72
2021/07/24 11:20:46;;;;;;;9.48;6.90;;;;;;;32.33;28.35;100691.06;5110544;28;20670;-73
2021/07/24 11:23:12;;;;;;;11.38;7.18;;;;;;;31.80;28.79;100685.16;5089527;28;20246;-72